createdAt,value
2022-08-14T00:00:58.757Z,86.44
2022-08-14T00:01:58.698Z,86.82
2022-08-14T00:02:58.602Z,86.54
2022-08-14T00:03:58.528Z,85.58
2022-08-14T00:04:58.453Z,83.37
2022-08-14T00:06:00.214Z,83.33
2022-08-14T00:06:58.306Z,85.05
2022-08-14T00:07:58.228Z,85.53
2022-08-14T00:08:59.302Z,86.88
2022-08-14T00:10:49.161Z,86.88
2022-08-14T00:10:58.004Z,86.88
2022-08-14T00:11:57.928Z,87.45
2022-08-14T00:12:58.115Z,88.22
2022-08-14T00:13:57.776Z,88.22
2022-08-14T00:14:57.699Z,85.63
2022-08-14T00:15:57.620Z,85.53
2022-08-14T00:16:57.549Z,86.49
2022-08-14T00:17:57.469Z,87.79
2022-08-14T00:19:06.468Z,88.46
2022-08-14T00:19:57.319Z,89.32
2022-08-14T00:20:57.245Z,90.00
2022-08-14T00:21:57.167Z,90.47
2022-08-14T00:22:58.463Z,89.04
2022-08-14T00:23:57.046Z,87.02
2022-08-14T00:24:56.951Z,87.60
2022-08-14T00:26:05.714Z,88.65
2022-08-14T00:26:56.790Z,86.35
2022-08-14T00:27:56.715Z,86.07
2022-08-14T00:28:56.685Z,87.12
2022-08-14T00:29:56.563Z,87.88
2022-08-14T00:30:56.493Z,90.86
2022-08-14T00:31:56.825Z,92.58
2022-08-14T00:32:56.781Z,90.19
2022-08-14T00:33:58.774Z,87.98
2022-08-14T00:34:56.186Z,88.75
2022-08-14T00:36:36.542Z,89.23
2022-08-14T00:36:56.031Z,86.64
2022-08-14T00:37:55.961Z,85.78
2022-08-14T00:38:55.895Z,85.49
2022-08-14T00:39:55.850Z,87.46
2022-08-14T00:40:55.730Z,88.32
2022-08-14T00:41:55.651Z,88.37
2022-08-14T00:42:56.589Z,88.80
2022-08-14T00:43:55.505Z,89.90
2022-08-14T00:44:55.591Z,90.00
2022-08-14T00:45:55.347Z,89.71
2022-08-14T00:46:58.943Z,89.80
2022-08-14T00:47:55.203Z,88.94
2022-08-14T00:48:55.122Z,88.56
2022-08-14T00:49:55.046Z,89.90
2022-08-14T00:50:54.974Z,90.43
2022-08-14T00:51:54.896Z,90.62
2022-08-14T00:52:54.820Z,90.91
2022-08-14T00:53:54.742Z,91.77
2022-08-14T00:54:58.181Z,91.58
2022-08-14T00:55:54.592Z,92.82
2022-08-14T00:56:54.858Z,93.35
2022-08-14T00:57:54.435Z,93.40
2022-08-14T00:58:54.367Z,94.07
2022-08-14T00:59:54.289Z,93.98
2022-08-14T01:00:57.701Z,93.88
2022-08-14T01:01:54.328Z,92.06
2022-08-14T01:02:54.061Z,90.05
2022-08-14T01:03:53.980Z,89.76
2022-08-14T01:04:55.087Z,91.19
2022-08-14T01:05:53.829Z,92.92
2022-08-14T01:06:55.333Z,92.54
2022-08-14T01:07:56.878Z,91.00
2022-08-14T01:08:59.201Z,90.05
2022-08-14T01:09:53.527Z,87.46
2022-08-14T01:10:53.454Z,86.69
2022-08-14T01:11:57.093Z,87.41
2022-08-14T01:12:53.296Z,87.03
2022-08-14T01:13:56.259Z,88.66
2022-08-14T01:14:53.149Z,89.81
2022-08-14T01:15:58.363Z,91.15
2022-08-14T01:16:55.477Z,91.53
2022-08-14T01:17:52.918Z,91.72
2022-08-14T01:18:57.807Z,88.66
2022-08-14T01:19:53.784Z,88.66
2022-08-14T01:20:52.693Z,90.77
2022-08-14T01:21:53.507Z,91.25
2022-08-14T01:22:52.540Z,91.92
2022-08-14T01:23:52.458Z,92.58
2022-08-14T01:24:52.384Z,92.97
2022-08-14T01:25:52.305Z,93.07
2022-08-14T01:26:52.231Z,93.35
2022-08-14T01:27:53.775Z,94.12
2022-08-14T01:28:56.942Z,94.60
2022-08-14T01:30:01.275Z,94.40
2022-08-14T01:30:51.926Z,95.07
2022-08-14T01:31:51.850Z,95.27
2022-08-14T01:32:51.919Z,95.36
2022-08-14T01:34:00.432Z,95.46
2022-08-14T01:35:20.627Z,94.79
2022-08-14T01:36:04.579Z,93.93
2022-08-14T01:36:51.467Z,94.89
2022-08-14T01:37:54.811Z,93.50
2022-08-14T01:38:51.316Z,94.65
2022-08-14T01:39:51.270Z,95.12
2022-08-14T01:40:51.163Z,95.89
2022-08-14T01:41:51.084Z,96.27
2022-08-14T01:42:51.012Z,96.56
2022-08-14T01:43:56.708Z,97.04
2022-08-14T01:44:50.863Z,98.00
2022-08-14T01:46:06.039Z,97.90
2022-08-14T01:46:57.964Z,95.98
2022-08-14T01:47:50.628Z,93.88
2022-08-14T01:48:50.550Z,93.79
2022-08-14T01:49:59.282Z,93.40
2022-08-14T01:50:50.402Z,95.61
2022-08-14T01:51:50.320Z,94.65
2022-08-14T01:52:58.394Z,94.84
2022-08-14T01:53:54.735Z,97.23
2022-08-14T01:54:58.362Z,97.80
2022-08-14T01:55:50.015Z,95.22
2022-08-14T01:56:49.938Z,93.69
2022-08-14T01:58:01.724Z,93.79
2022-08-14T01:58:57.341Z,92.83
2022-08-14T01:59:49.728Z,91.87
2022-08-14T02:00:49.634Z,91.68
2022-08-14T02:01:51.405Z,91.58
2022-08-14T02:02:52.657Z,90.63
2022-08-14T02:03:53.421Z,94.17
2022-08-14T02:04:55.379Z,94.02
2022-08-14T02:05:49.247Z,93.26
2022-08-14T02:06:49.176Z,92.16
2022-08-14T02:07:55.411Z,93.07
2022-08-14T02:08:52.875Z,96.56
2022-08-14T02:09:56.016Z,97.23
2022-08-14T02:10:48.869Z,96.37
2022-08-14T02:11:48.791Z,93.30
2022-08-14T02:12:49.019Z,94.07
2022-08-14T02:13:50.506Z,94.36
2022-08-14T02:14:50.850Z,93.02
2022-08-14T02:15:50.159Z,90.44
2022-08-14T02:16:48.406Z,90.34
2022-08-14T02:17:48.347Z,91.11
2022-08-14T02:18:48.254Z,92.06
2022-08-14T02:19:48.175Z,91.58
2022-08-14T02:20:48.362Z,92.54
2022-08-14T02:21:50.423Z,92.44
2022-08-14T02:22:48.440Z,91.39
2022-08-14T02:23:47.865Z,92.73
2022-08-14T02:24:47.952Z,92.35
2022-08-14T02:25:54.572Z,91.39
2022-08-14T02:28:18.850Z,91.68
2022-08-14T02:28:22.780Z,90.72
2022-08-14T02:28:57.670Z,93.30
2022-08-14T02:29:56.353Z,92.83
2022-08-14T02:30:47.331Z,92.11
2022-08-14T02:31:47.259Z,94.70
2022-08-14T02:32:47.442Z,96.47
2022-08-14T02:33:47.102Z,94.89
2022-08-14T02:34:47.020Z,94.70
2022-08-14T02:35:53.565Z,94.50
2022-08-14T02:37:02.432Z,92.40
2022-08-14T02:37:48.343Z,91.06
2022-08-14T02:38:46.716Z,92.11
2022-08-14T02:39:46.670Z,93.84
2022-08-14T02:40:46.560Z,95.36
2022-08-14T02:41:52.798Z,96.22
2022-08-14T02:42:54.098Z,97.37
2022-08-14T02:43:48.673Z,98.90
2022-08-14T02:44:49.459Z,99.48
2022-08-14T02:45:47.782Z,99.99
2022-08-14T02:46:49.757Z,99.99
2022-08-14T02:47:47.597Z,99.99
2022-08-14T02:49:04.241Z,99.99
2022-08-14T02:49:45.875Z,99.99
2022-08-14T02:50:51.516Z,99.99
2022-08-14T02:51:45.725Z,99.99
2022-08-14T02:52:56.205Z,99.99
2022-08-14T02:53:45.561Z,99.99
2022-08-14T02:54:45.487Z,99.99
2022-08-14T02:55:45.408Z,99.99
2022-08-14T02:57:16.530Z,99.99
2022-08-14T02:57:45.250Z,99.81
2022-08-14T02:58:45.175Z,99.52
2022-08-14T02:59:45.096Z,98.19
2022-08-14T03:00:45.028Z,97.23
2022-08-14T03:01:51.047Z,95.79
2022-08-14T03:02:56.097Z,96.84
2022-08-14T03:03:44.795Z,97.33
2022-08-14T03:04:44.715Z,97.04
2022-08-14T03:05:44.641Z,96.75
2022-08-14T03:06:57.637Z,96.22
2022-08-14T03:07:44.496Z,98.04
2022-08-14T03:08:46.037Z,99.00
2022-08-14T03:10:28.037Z,99.99
2022-08-14T03:10:49.283Z,99.96
2022-08-14T03:11:44.784Z,99.29
2022-08-14T03:12:44.280Z,99.99
2022-08-14T03:13:44.027Z,99.99
2022-08-14T03:14:43.949Z,99.99
2022-08-14T03:15:43.869Z,99.99
2022-08-14T03:16:43.798Z,97.28
2022-08-14T03:17:56.398Z,96.70
2022-08-14T03:18:43.638Z,98.24
2022-08-14T03:19:43.563Z,99.10
2022-08-14T03:20:43.486Z,98.24
2022-08-14T03:21:43.409Z,96.99
2022-08-14T03:22:43.635Z,97.08
2022-08-14T03:23:43.254Z,98.04
2022-08-14T03:24:43.182Z,98.90
2022-08-14T03:25:43.100Z,99.99
2022-08-14T03:26:43.023Z,99.99
2022-08-14T03:27:48.610Z,99.99
2022-08-14T03:28:42.872Z,99.81
2022-08-14T03:29:42.796Z,99.04
2022-08-14T03:30:42.710Z,98.95
2022-08-14T03:31:42.635Z,99.24
2022-08-14T03:32:42.755Z,99.33
2022-08-14T03:33:43.082Z,99.62
2022-08-14T03:34:48.310Z,99.43
2022-08-14T03:36:05.241Z,99.04
2022-08-14T03:37:38.637Z,97.52
2022-08-14T03:39:13.605Z,94.84
2022-08-14T03:39:14.959Z,95.12
2022-08-14T03:39:42.110Z,94.46
2022-08-14T03:40:41.944Z,94.46
2022-08-14T03:41:41.870Z,95.32
2022-08-14T03:42:41.786Z,97.80
2022-08-14T03:43:41.750Z,99.43
2022-08-14T03:45:19.530Z,99.99
2022-08-14T03:45:48.609Z,99.99
2022-08-14T03:46:54.505Z,99.99
2022-08-14T03:47:46.429Z,99.99
2022-08-14T03:48:41.329Z,99.99
2022-08-14T03:49:41.974Z,99.99
2022-08-14T03:50:41.178Z,99.99
2022-08-14T03:51:41.094Z,99.99
2022-08-14T03:52:48.087Z,99.99
2022-08-14T03:53:40.938Z,99.99
2022-08-14T03:54:40.865Z,99.99
2022-08-14T03:55:40.787Z,99.99
2022-08-14T03:56:40.709Z,99.99
2022-08-14T03:57:40.664Z,99.99
2022-08-14T03:58:40.554Z,99.99
2022-08-14T03:59:40.474Z,99.99
2022-08-14T04:00:44.671Z,99.99
2022-08-14T04:01:45.873Z,99.99
2022-08-14T04:02:47.014Z,99.99
2022-08-14T04:03:40.168Z,99.99
2022-08-14T04:04:40.089Z,99.99
2022-08-14T04:05:43.380Z,99.99
2022-08-14T04:06:42.604Z,99.99
2022-08-14T04:07:49.911Z,99.09
2022-08-14T04:08:39.782Z,97.37
2022-08-14T04:09:39.706Z,95.46
2022-08-14T04:10:39.624Z,94.89
2022-08-14T04:11:39.551Z,94.22
2022-08-14T04:12:39.485Z,96.22
2022-08-14T04:13:39.547Z,96.99
2022-08-14T04:14:39.319Z,96.70
2022-08-14T04:15:55.788Z,96.13
2022-08-14T04:16:39.162Z,95.07
2022-08-14T04:17:39.086Z,96.03
2022-08-14T04:18:39.009Z,96.51
2022-08-14T04:19:38.936Z,97.28
2022-08-14T04:20:51.608Z,97.18
2022-08-14T04:21:39.872Z,96.70
2022-08-14T04:22:38.696Z,98.04
2022-08-14T04:23:38.621Z,99.57
2022-08-14T04:24:39.359Z,99.76
2022-08-14T04:25:38.469Z,99.99
2022-08-14T04:26:42.426Z,99.99
2022-08-14T04:28:01.518Z,99.99
2022-08-14T04:29:07.633Z,99.19
2022-08-14T04:29:38.155Z,98.90
2022-08-14T04:30:38.080Z,99.99
2022-08-14T04:33:01.231Z,99.99
2022-08-14T04:33:10.369Z,99.99
2022-08-14T04:33:37.854Z,99.99
2022-08-14T04:34:37.767Z,99.99
2022-08-14T04:35:56.607Z,99.99
2022-08-14T04:36:37.615Z,99.95
2022-08-14T04:37:37.533Z,98.80
2022-08-14T04:38:38.433Z,98.23
2022-08-14T04:39:37.428Z,99.99
2022-08-14T04:40:40.502Z,99.99
2022-08-14T04:41:37.226Z,99.99
2022-08-14T04:42:37.149Z,99.99
2022-08-14T04:43:38.661Z,99.99
2022-08-14T04:44:37.322Z,99.99
2022-08-14T04:45:36.925Z,99.99
2022-08-14T04:46:55.334Z,99.99
2022-08-14T04:47:36.765Z,99.99
2022-08-14T04:48:43.327Z,99.99
2022-08-14T04:49:38.359Z,99.99
2022-08-14T04:50:43.766Z,99.99
2022-08-14T04:51:46.195Z,99.99
2022-08-14T04:52:37.442Z,99.99
2022-08-14T04:53:42.765Z,99.99
2022-08-14T04:54:36.214Z,99.99
2022-08-14T04:55:36.138Z,99.99
2022-08-14T04:56:36.065Z,99.99
2022-08-14T04:57:35.988Z,99.99
2022-08-14T04:58:35.908Z,99.99
2022-08-14T04:59:35.832Z,99.99
2022-08-14T05:00:35.754Z,99.99
2022-08-14T05:01:40.242Z,99.99
2022-08-14T05:02:35.698Z,99.99
2022-08-14T05:03:35.523Z,99.99
2022-08-14T05:04:35.440Z,99.99
2022-08-14T05:05:35.365Z,99.99
2022-08-14T05:06:38.981Z,99.99
2022-08-14T05:07:54.375Z,99.99
2022-08-14T05:08:50.554Z,99.99
2022-08-14T05:09:35.056Z,99.99
2022-08-14T05:10:34.986Z,99.99
2022-08-14T05:11:36.741Z,99.99
2022-08-14T05:13:14.320Z,99.99
2022-08-14T05:13:59.573Z,99.99
2022-08-14T05:14:53.658Z,99.99
2022-08-14T05:15:34.593Z,99.99
2022-08-14T05:16:34.513Z,99.99
2022-08-14T05:17:44.046Z,99.99
2022-08-14T05:19:19.124Z,99.99
2022-08-14T05:19:36.461Z,99.99
2022-08-14T05:21:58.223Z,99.99
2022-08-14T05:22:00.286Z,99.99
2022-08-14T05:22:34.053Z,99.99
2022-08-14T05:23:33.973Z,99.99
2022-08-14T05:24:33.898Z,99.99
2022-08-14T05:25:34.366Z,99.99
2022-08-14T05:26:33.747Z,99.99
2022-08-14T05:27:33.671Z,99.99
2022-08-14T05:28:33.594Z,99.99
2022-08-14T05:29:33.514Z,99.99
2022-08-14T05:30:33.436Z,99.99
2022-08-14T05:31:39.563Z,99.99
2022-08-14T05:32:33.278Z,99.99
2022-08-14T05:33:33.198Z,99.99
2022-08-14T05:34:33.132Z,99.99
2022-08-14T05:35:33.050Z,99.99
2022-08-14T05:36:32.970Z,99.99
2022-08-14T05:37:32.893Z,99.99
2022-08-14T05:38:35.376Z,99.99
2022-08-14T05:39:32.757Z,99.99
2022-08-14T05:40:32.658Z,99.99
2022-08-14T05:41:53.149Z,99.99
2022-08-14T05:42:34.246Z,99.99
2022-08-14T05:43:40.891Z,99.99
2022-08-14T05:44:32.349Z,99.99
2022-08-14T05:45:32.276Z,99.99
2022-08-14T05:46:32.199Z,99.99
2022-08-14T05:47:34.008Z,99.99
2022-08-14T05:48:33.489Z,99.99
2022-08-14T05:49:33.632Z,99.99
2022-08-14T05:50:31.893Z,99.99
2022-08-14T05:51:31.814Z,99.99
2022-08-14T05:52:39.196Z,99.99
2022-08-14T05:53:34.397Z,99.99
2022-08-14T05:54:35.599Z,99.99
2022-08-14T05:55:31.515Z,99.99
2022-08-14T05:56:31.439Z,99.99
2022-08-14T05:57:31.351Z,99.99
2022-08-14T05:58:41.082Z,99.99
2022-08-14T05:59:36.565Z,99.99
2022-08-14T06:00:36.980Z,99.99
2022-08-14T06:01:31.815Z,99.99
2022-08-14T06:02:30.965Z,99.99
2022-08-14T06:03:30.893Z,99.99
2022-08-14T06:04:30.816Z,99.99
2022-08-14T06:05:30.749Z,99.99
2022-08-14T06:06:33.768Z,99.99
2022-08-14T06:07:30.585Z,99.99
2022-08-14T06:08:36.012Z,99.99
2022-08-14T06:09:30.433Z,99.99
2022-08-14T06:10:30.356Z,99.99
2022-08-14T06:11:30.932Z,99.99
2022-08-14T06:12:31.472Z,99.99
2022-08-14T06:13:31.522Z,99.99
2022-08-14T06:14:30.050Z,99.99
2022-08-14T06:15:30.806Z,99.99
2022-08-14T06:16:29.895Z,99.99
2022-08-14T06:17:29.817Z,99.99
2022-08-14T06:18:32.157Z,99.99
2022-08-14T06:19:29.666Z,99.99
2022-08-14T06:20:30.208Z,99.99
2022-08-14T06:21:29.513Z,99.99
2022-08-14T06:22:29.436Z,99.99
2022-08-14T06:23:29.357Z,99.99
2022-08-14T06:24:30.663Z,99.99
2022-08-14T06:25:29.207Z,99.99
2022-08-14T06:26:30.195Z,99.99
2022-08-14T06:27:33.162Z,99.99
2022-08-14T06:28:28.974Z,99.99
2022-08-14T06:29:32.384Z,99.99
2022-08-14T06:30:41.797Z,99.99
2022-08-14T06:31:28.748Z,99.99
2022-08-14T06:32:38.519Z,99.99
2022-08-14T06:33:30.058Z,99.99
2022-08-14T06:35:03.399Z,99.99
2022-08-14T06:35:28.445Z,99.99
2022-08-14T06:36:28.378Z,99.99
2022-08-14T06:37:28.292Z,99.99
2022-08-14T06:38:28.212Z,99.99
2022-08-14T06:39:36.286Z,99.99
2022-08-14T06:40:28.708Z,99.99
2022-08-14T06:41:35.900Z,99.99
2022-08-14T06:42:32.678Z,99.99
2022-08-14T06:43:30.290Z,99.99
2022-08-14T06:44:30.327Z,99.99
2022-08-14T06:45:27.684Z,99.99
2022-08-14T06:46:34.324Z,99.99
2022-08-14T06:47:27.529Z,99.99
2022-08-14T06:48:27.453Z,99.99
2022-08-14T06:49:27.377Z,99.99
2022-08-14T06:50:27.970Z,99.99
2022-08-14T06:51:39.069Z,99.99
2022-08-14T06:52:27.151Z,99.99
2022-08-14T06:53:28.302Z,99.99
2022-08-14T06:54:31.228Z,99.99
2022-08-14T06:55:28.257Z,99.99
2022-08-14T06:56:26.849Z,99.99
2022-08-14T06:57:26.785Z,99.99
2022-08-14T06:58:29.405Z,99.99
2022-08-14T06:59:26.623Z,99.99
2022-08-14T07:00:27.073Z,99.59
2022-08-14T07:01:26.992Z,98.92
2022-08-14T07:02:28.820Z,98.72
2022-08-14T07:03:26.322Z,98.54
2022-08-14T07:04:26.248Z,97.57
2022-08-14T07:05:26.174Z,96.37
2022-08-14T07:06:46.227Z,96.37
2022-08-14T07:07:28.793Z,95.21
2022-08-14T07:08:25.948Z,94.92
2022-08-14T07:09:25.871Z,94.64
2022-08-14T07:10:25.819Z,94.64
2022-08-14T07:11:25.717Z,94.64
2022-08-14T07:12:34.770Z,94.15
2022-08-14T07:13:25.569Z,94.15
2022-08-14T07:14:25.491Z,93.57
2022-08-14T07:15:25.420Z,93.24
2022-08-14T07:16:27.405Z,93.24
2022-08-14T07:17:25.266Z,93.62
2022-08-14T07:18:25.189Z,92.76
2022-08-14T07:19:25.116Z,93.52
2022-08-14T07:20:31.257Z,93.86
2022-08-14T07:21:24.963Z,91.45
2022-08-14T07:22:24.895Z,90.30
2022-08-14T07:23:24.958Z,90.39
2022-08-14T07:24:31.499Z,90.68
2022-08-14T07:25:32.806Z,91.30
2022-08-14T07:26:24.597Z,89.76
2022-08-14T07:27:24.515Z,88.60
2022-08-14T07:28:24.536Z,88.89
2022-08-14T07:29:26.516Z,87.88
2022-08-14T07:30:34.245Z,87.35
2022-08-14T07:31:24.219Z,87.78
2022-08-14T07:32:30.297Z,87.30
2022-08-14T07:33:24.852Z,85.46
2022-08-14T07:34:35.929Z,85.85
2022-08-14T07:35:23.921Z,85.46
2022-08-14T07:36:27.679Z,84.64
2022-08-14T07:37:23.772Z,83.77
2022-08-14T07:38:23.700Z,84.06
2022-08-14T07:39:27.523Z,83.52
2022-08-14T07:40:27.667Z,83.04
2022-08-14T07:41:23.476Z,82.36
2022-08-14T07:42:23.401Z,81.98
2022-08-14T07:43:23.817Z,81.78
2022-08-14T07:44:32.226Z,82.89
2022-08-14T07:45:23.183Z,81.92
2022-08-14T07:46:29.365Z,81.24
2022-08-14T07:47:23.045Z,80.61
2022-08-14T07:48:25.035Z,80.12
2022-08-14T07:49:24.098Z,79.39
2022-08-14T07:50:22.817Z,77.94
2022-08-14T07:51:22.744Z,77.94
2022-08-14T07:52:30.504Z,77.65
2022-08-14T07:53:22.602Z,77.45
2022-08-14T07:54:23.120Z,77.45
2022-08-14T07:55:22.451Z,76.72
2022-08-14T07:56:43.877Z,77.11
2022-08-14T07:57:25.092Z,76.53
2022-08-14T07:58:34.153Z,76.14
2022-08-14T07:59:41.096Z,76.28
2022-08-14T08:00:30.878Z,75.89
2022-08-14T08:01:22.011Z,74.34
2022-08-14T08:02:21.996Z,74.43
2022-08-14T08:03:23.595Z,74.43
2022-08-14T08:04:24.551Z,74.05
2022-08-14T08:05:21.718Z,74.43
2022-08-14T08:06:21.649Z,72.89
2022-08-14T08:07:21.582Z,73.60
2022-08-14T08:08:26.774Z,73.60
2022-08-14T08:09:21.433Z,72.92
2022-08-14T08:10:31.351Z,72.83
2022-08-14T08:11:21.290Z,71.66
2022-08-14T08:12:23.876Z,71.80
2022-08-14T08:13:22.267Z,71.41
2022-08-14T08:14:21.080Z,70.92
2022-08-14T08:15:21.005Z,71.50
2022-08-14T08:16:20.934Z,71.83
2022-08-14T08:17:20.858Z,70.76
2022-08-14T08:18:27.777Z,69.89
2022-08-14T08:19:20.719Z,70.18
2022-08-14T08:20:20.744Z,69.89
2022-08-14T08:21:20.577Z,70.03
2022-08-14T08:22:20.506Z,70.03
2022-08-14T08:23:20.737Z,69.44
2022-08-14T08:24:20.963Z,68.99
2022-08-14T08:25:20.289Z,69.18
2022-08-14T08:26:20.221Z,67.86
2022-08-14T08:27:21.481Z,68.15
2022-08-14T08:28:25.065Z,66.79
2022-08-14T08:29:20.146Z,66.50
2022-08-14T08:30:19.935Z,66.21
2022-08-14T08:31:19.862Z,66.40
2022-08-14T08:32:19.796Z,66.69
2022-08-14T08:33:19.721Z,66.79
2022-08-14T08:34:19.652Z,67.02
2022-08-14T08:35:19.580Z,66.24
2022-08-14T08:36:19.513Z,65.24
2022-08-14T08:37:19.440Z,63.68
2022-08-14T08:39:15.147Z,62.81
2022-08-14T08:39:22.393Z,63.01
2022-08-14T08:40:20.875Z,63.88
2022-08-14T08:41:19.163Z,63.68
2022-08-14T08:42:24.103Z,63.49
2022-08-14T08:43:19.020Z,63.01
2022-08-14T08:44:32.580Z,63.10
2022-08-14T08:45:18.878Z,63.98
2022-08-14T08:46:23.423Z,63.20
2022-08-14T08:47:18.741Z,61.74
2022-08-14T08:48:31.955Z,62.04
2022-08-14T08:49:18.599Z,61.16
2022-08-14T08:50:23.457Z,61.07
2022-08-14T08:51:18.459Z,61.38
2022-08-14T08:52:24.630Z,61.09
2022-08-14T08:53:18.321Z,61.12
2022-08-14T08:54:19.899Z,61.02
2022-08-14T08:55:18.180Z,61.32
2022-08-14T08:56:30.750Z,61.22
2022-08-14T08:57:18.372Z,61.80
2022-08-14T08:58:20.141Z,60.93
2022-08-14T08:59:17.904Z,60.83
2022-08-14T09:00:25.451Z,61.41
2022-08-14T09:01:17.783Z,61.22
2022-08-14T09:02:17.699Z,60.61
2022-08-14T09:03:17.630Z,60.54
2022-08-14T09:04:17.702Z,59.38
2022-08-14T09:05:17.493Z,59.38
2022-08-14T09:06:56.955Z,59.38
2022-08-14T09:07:17.348Z,59.18
2022-08-14T09:08:30.461Z,59.57
2022-08-14T09:09:17.210Z,59.08
2022-08-14T09:10:18.690Z,58.69
2022-08-14T09:11:19.000Z,58.89
2022-08-14T09:12:17.000Z,59.31
2022-08-14T09:13:16.940Z,59.31
2022-08-14T09:14:16.865Z,58.59
2022-08-14T09:15:16.801Z,58.50
2022-08-14T09:16:19.136Z,58.31
2022-08-14T09:17:16.660Z,58.79
2022-08-14T09:18:16.594Z,58.79
2022-08-14T09:19:16.524Z,58.23
2022-08-14T09:20:25.836Z,57.26
2022-08-14T09:21:16.588Z,56.29
2022-08-14T09:22:34.704Z,56.68
2022-08-14T09:23:16.868Z,57.23
2022-08-14T09:24:28.442Z,57.53
2022-08-14T09:25:16.119Z,58.14
2022-08-14T09:26:21.229Z,57.56
2022-08-14T09:27:22.626Z,59.11
2022-08-14T09:28:15.903Z,58.82
2022-08-14T09:29:15.834Z,57.49
2022-08-14T09:30:32.157Z,57.42
2022-08-14T09:31:17.699Z,56.15
2022-08-14T09:32:57.940Z,54.69
2022-08-14T09:33:15.779Z,54.62
2022-08-14T09:34:26.996Z,53.65
2022-08-14T09:35:15.421Z,53.45
2022-08-14T09:36:15.354Z,53.62
2022-08-14T09:37:15.284Z,54.50
2022-08-14T09:38:15.500Z,53.94
2022-08-14T09:39:15.150Z,54.60
2022-08-14T09:40:16.739Z,55.11
2022-08-14T09:41:15.012Z,54.62
2022-08-14T09:42:21.076Z,54.46
2022-08-14T09:43:14.875Z,53.97
2022-08-14T09:44:14.808Z,54.94
2022-08-14T09:45:14.741Z,54.09
2022-08-14T09:46:16.961Z,53.11
2022-08-14T09:47:14.747Z,53.99
2022-08-14T09:48:14.538Z,53.21
2022-08-14T09:49:16.392Z,52.22
2022-08-14T09:50:14.439Z,53.09
2022-08-14T09:51:14.335Z,52.40
2022-08-14T09:52:33.245Z,52.40
2022-08-14T09:53:18.021Z,51.82
2022-08-14T09:54:18.075Z,51.92
2022-08-14T09:55:14.078Z,52.40
2022-08-14T09:56:14.009Z,52.80
2022-08-14T09:57:13.936Z,52.50
2022-08-14T09:58:19.244Z,52.53
2022-08-14T09:59:14.875Z,52.22
2022-08-14T10:00:29.570Z,52.50
2022-08-14T10:01:13.680Z,52.77
2022-08-14T10:02:13.650Z,53.38
2022-08-14T10:03:13.560Z,52.97
2022-08-14T10:04:34.999Z,52.87
2022-08-14T10:05:13.407Z,52.80
2022-08-14T10:06:13.336Z,52.31
2022-08-14T10:07:13.275Z,52.89
2022-08-14T10:08:15.050Z,53.19
2022-08-14T10:09:16.834Z,52.34
2022-08-14T10:10:23.539Z,51.65
2022-08-14T10:11:12.998Z,52.04
2022-08-14T10:12:13.389Z,51.65
2022-08-14T10:13:12.857Z,50.68
2022-08-14T10:14:12.785Z,50.78
2022-08-14T10:15:12.716Z,51.24
2022-08-14T10:16:21.777Z,52.34
2022-08-14T10:17:12.592Z,51.43
2022-08-14T10:18:13.304Z,51.53
2022-08-14T10:19:12.464Z,51.24
2022-08-14T10:20:40.547Z,52.24
2022-08-14T10:21:12.333Z,51.46
2022-08-14T10:23:12.342Z,51.19
2022-08-14T10:23:16.220Z,51.19
2022-08-14T10:24:12.241Z,50.38
2022-08-14T10:25:12.081Z,50.68
2022-08-14T10:26:22.669Z,50.78
2022-08-14T10:27:11.919Z,50.65
2022-08-14T10:28:29.113Z,50.73
2022-08-14T10:29:19.711Z,51.31
2022-08-14T10:30:12.120Z,51.21
2022-08-14T10:31:11.649Z,51.90
2022-08-14T10:32:18.200Z,52.22
2022-08-14T10:33:11.526Z,51.04
2022-08-14T10:34:13.239Z,51.07
2022-08-14T10:35:14.695Z,50.65
2022-08-14T10:36:15.481Z,50.56
2022-08-14T10:37:14.563Z,51.14
2022-08-14T10:38:11.174Z,50.38
2022-08-14T10:39:12.218Z,50.65
2022-08-14T10:40:38.011Z,50.46
2022-08-14T10:41:11.076Z,50.65
2022-08-14T10:42:18.369Z,50.65
2022-08-14T10:43:10.842Z,50.56
2022-08-14T10:44:20.969Z,50.24
2022-08-14T10:45:10.708Z,51.02
2022-08-14T10:46:59.195Z,50.24
2022-08-14T10:47:40.340Z,50.63
2022-08-14T10:48:24.327Z,51.61
2022-08-14T10:49:10.442Z,51.51
2022-08-14T10:50:12.113Z,51.97
2022-08-14T10:51:10.306Z,52.94
2022-08-14T10:52:10.239Z,52.77
2022-08-14T10:53:10.174Z,52.45
2022-08-14T10:54:17.177Z,52.84
2022-08-14T10:55:10.040Z,52.87
2022-08-14T10:56:21.798Z,53.04
2022-08-14T10:57:09.902Z,52.45
2022-08-14T10:58:09.835Z,52.58
2022-08-14T10:59:09.770Z,52.38
2022-08-14T11:00:09.825Z,51.51
2022-08-14T11:01:09.632Z,51.61
2022-08-14T11:02:09.565Z,51.04
2022-08-14T11:03:09.588Z,50.82
2022-08-14T11:04:09.483Z,51.02
2022-08-14T11:05:09.426Z,51.51
2022-08-14T11:06:09.300Z,51.41
2022-08-14T11:07:09.235Z,51.31
2022-08-14T11:08:12.804Z,51.87
2022-08-14T11:09:09.099Z,52.16
2022-08-14T11:10:09.028Z,52.26
2022-08-14T11:11:08.963Z,52.58
2022-08-14T11:12:34.534Z,52.77
2022-08-14T11:13:08.827Z,52.97
2022-08-14T11:14:09.389Z,52.38
2022-08-14T11:15:08.693Z,52.09
2022-08-14T11:16:08.630Z,51.61
2022-08-14T11:17:08.558Z,51.80
2022-08-14T11:18:08.487Z,52.19
2022-08-14T11:19:08.512Z,51.87
2022-08-14T11:20:14.044Z,52.48
2022-08-14T11:21:09.494Z,52.45
2022-08-14T11:22:08.218Z,52.55
2022-08-14T11:23:08.685Z,52.36
2022-08-14T11:24:55.444Z,52.87
2022-08-14T11:25:08.020Z,52.77
2022-08-14T11:26:07.954Z,52.28
2022-08-14T11:27:07.884Z,51.73
2022-08-14T11:28:11.027Z,51.21
2022-08-14T11:29:07.751Z,51.24
2022-08-14T11:30:50.782Z,51.46
2022-08-14T11:31:07.616Z,51.95
2022-08-14T11:32:07.545Z,51.29
2022-08-14T11:33:07.481Z,49.56
2022-08-14T11:34:10.479Z,49.17
2022-08-14T11:35:07.344Z,47.73
2022-08-14T11:36:17.100Z,47.51
2022-08-14T11:37:18.241Z,47.92
2022-08-14T11:38:07.146Z,47.14
2022-08-14T11:39:09.946Z,47.53
2022-08-14T11:40:07.052Z,47.53
2022-08-14T11:41:07.449Z,47.66
2022-08-14T11:42:07.731Z,46.46
2022-08-14T11:43:06.948Z,46.07
2022-08-14T11:44:17.606Z,46.26
2022-08-14T11:45:10.970Z,46.56
2022-08-14T11:46:06.627Z,47.92
2022-08-14T11:47:07.080Z,46.68
2022-08-14T11:48:13.729Z,46.09
2022-08-14T11:49:06.870Z,46.29
2022-08-14T11:50:06.390Z,46.58
2022-08-14T11:51:06.282Z,47.14
2022-08-14T11:52:06.214Z,47.83
2022-08-14T11:53:06.823Z,47.83
2022-08-14T11:54:06.081Z,48.41
2022-08-14T11:55:06.016Z,48.14
2022-08-14T11:56:06.263Z,48.07
2022-08-14T11:57:05.889Z,46.70
2022-08-14T11:58:05.823Z,45.82
2022-08-14T11:59:05.758Z,45.92
2022-08-14T12:00:05.728Z,45.53
2022-08-14T12:01:05.615Z,45.70
2022-08-14T12:02:05.552Z,46.19
2022-08-14T12:03:05.778Z,46.29
2022-08-14T12:04:05.449Z,45.80
2022-08-14T12:05:09.151Z,45.70
2022-08-14T12:06:05.292Z,46.41
2022-08-14T12:07:05.224Z,46.50
2022-08-14T12:08:06.696Z,46.72
2022-08-14T12:09:08.895Z,46.43
2022-08-14T12:10:26.353Z,44.79
2022-08-14T12:11:04.967Z,44.10
2022-08-14T12:12:04.894Z,44.28
2022-08-14T12:13:04.827Z,44.77
2022-08-14T12:14:04.766Z,45.06
2022-08-14T12:15:04.698Z,44.40
2022-08-14T12:16:06.472Z,43.71
2022-08-14T12:17:04.773Z,42.64
2022-08-14T12:18:04.668Z,43.42
2022-08-14T12:19:04.439Z,43.59
2022-08-14T12:20:04.379Z,44.09
2022-08-14T12:21:04.307Z,44.28
2022-08-14T12:22:04.249Z,43.87
2022-08-14T12:23:05.321Z,44.45
2022-08-14T12:24:04.115Z,44.84
2022-08-14T12:25:08.508Z,45.12
2022-08-14T12:26:39.727Z,45.04
2022-08-14T12:27:03.914Z,44.55
2022-08-14T12:28:04.067Z,44.67
2022-08-14T12:29:03.787Z,43.89
2022-08-14T12:30:03.792Z,43.91
2022-08-14T12:31:03.655Z,43.52
2022-08-14T12:32:03.593Z,44.42
2022-08-14T12:33:03.524Z,44.52
2022-08-14T12:34:03.463Z,43.54
2022-08-14T12:35:03.398Z,43.46
2022-08-14T12:36:04.462Z,43.95
2022-08-14T12:37:03.266Z,42.29
2022-08-14T12:38:03.211Z,42.17
2022-08-14T12:39:03.137Z,41.58
2022-08-14T12:40:03.138Z,41.83
2022-08-14T12:41:03.008Z,42.81
2022-08-14T12:42:02.945Z,43.48
2022-08-14T12:43:02.878Z,43.67
2022-08-14T12:44:02.815Z,43.99
2022-08-14T12:45:03.851Z,44.57
2022-08-14T12:46:02.689Z,44.38
2022-08-14T12:47:02.674Z,44.40
2022-08-14T12:48:21.408Z,44.28
2022-08-14T12:49:02.655Z,44.18
2022-08-14T12:50:02.547Z,45.26
2022-08-14T12:51:02.371Z,44.59
2022-08-14T12:52:02.300Z,44.69